Thunder radar more information blitzortung!


Radar de pluja more information rain snow radar


Visita la nostra xarxa de llocs de meteo:

Template documentation
and downloads

And another site



No particular awareness of the weather is required.    There are no Weather-warnings

Pagina Historial Weather Underground text

Diari Resum February 26, 2016 Unitats:  Mètric    Imperial   Tant
« Previous Dia
SegĂźent Dia »
Diari Setmana Mensual Anual Personalitzada
  Maxima: Minima: Media:
Temperatura: -17.8 °C -14.3 °C -11.9 °C
Punt de rosada: -17.8 °C -18.1 °C -16.3 °C
Humitat: Humidity % 47 % 58 %
Wind Speed: 0 km/h 0 km/h 6.9 km/h
RĂ fegues de vent: 0 km/h - -
Vent:- - SSE
Pression baro: 0 hPa 33477.4 hPa -
Precipitacions: 0 mm    
Historical Graphs
 
 
Dades de taula per February 26, 2016
Temps Temperatura Punt de rosada Pression baro Vent Wind Speed RĂ fegues de vent Humitat Rainfall Rate (Hourly)
-17.8 °C -17.8 °C 0 hPa Calm     Humidity % 0 mm
00:00 -13.7 °C -17.6 °C 34327.3 hPa Calm   5.1 km/h 61 % 0 mm
00:10 -13.8 °C -17.7 °C 34327.3 hPa Calm     61 % 0 mm
00:20 -13.8 °C -17.7 °C 34327.3 hPa WNW 2.6 km/h 7.7 km/h 61 % 0 mm
00:30 -14 °C -17.9 °C 34327.3 hPa Calm   5.1 km/h 61 % 0 mm
00:40 -14.1 °C -18 °C 34327.3 hPa WNW 2.6 km/h 2.6 km/h 61 % 0 mm
00:50 -14.1 °C -17.9 °C 34327.3 hPa NW 2.6 km/h 5.1 km/h 61 % 0 mm
01:00 -14.2 °C -18.1 °C 34327.3 hPa Calm   5.1 km/h 61 % 0 mm
01:10 -14.2 °C -18.1 °C 34293.4 hPa WNW 2.6 km/h 5.1 km/h 61 % 0 mm
01:20 -14.3 °C -18.1 °C 34293.4 hPa Calm   5.1 km/h 62 % 0 mm
01:30 -14.2 °C -17.9 °C 34293.4 hPa Calm   7.7 km/h 62 % 0 mm
01:40 -13.8 °C -17.5 °C 34293.4 hPa West 2.6 km/h 10.3 km/h 63 % 0 mm
01:50 -13.9 °C -17.6 °C 34293.4 hPa North 5.1 km/h 7.7 km/h 63 % 0 mm
02:00 -13.9 °C -17.6 °C 34293.4 hPa East 2.6 km/h 5.1 km/h 63 % 0 mm
02:10 -13.9 °C -17.7 °C 34293.4 hPa ESE 2.6 km/h 5.1 km/h 62 % 0 mm
02:20 -13.9 °C -17.7 °C 34293.4 hPa West 2.6 km/h 2.6 km/h 62 % 0 mm
02:30 -13.7 °C -17.4 °C 34293.4 hPa West 5.1 km/h 5.1 km/h 62 % 0 mm
02:40 -13.3 °C -17.1 °C 34293.4 hPa NNW 5.1 km/h 7.7 km/h 62 % 0 mm
02:50 -13.2 °C -17.1 °C 34293.4 hPa North 5.1 km/h 10.3 km/h 62 % 0 mm
03:00 -13 °C -16.9 °C 34293.4 hPa North 2.6 km/h 10.3 km/h 61 % 0 mm
03:10 -12.8 °C -16.7 °C 34327.3 hPa NNE 2.6 km/h 5.1 km/h 61 % 0 mm
03:20 -12.8 °C -16.8 °C 34293.4 hPa NNE 5.1 km/h 10.3 km/h 60 % 0 mm
03:30 -12.7 °C -16.8 °C 34293.4 hPa NE 5.1 km/h 15.6 km/h 60 % 0 mm
03:40 -12.6 °C -16.7 °C 34293.4 hPa NNE 7.7 km/h 15.6 km/h 60 % 0 mm
03:50 -12.6 °C -16.8 °C 34327.3 hPa NNE 12.9 km/h 15.6 km/h 59 % 0 mm
04:00 -12.5 °C -16.7 °C 34327.3 hPa NE 7.7 km/h 10.3 km/h 59 % 0 mm
04:10 -12.4 °C -16.8 °C 34327.3 hPa NE 12.9 km/h 15.6 km/h 58 % 0 mm
04:20 -12.2 °C -16.6 °C 34256.2 hPa NE 2.6 km/h 15.6 km/h 58 % 0 mm
04:30 -11.9 °C -16.5 °C 34256.2 hPa NE 7.7 km/h 7.7 km/h 57 % 0 mm
04:40 -11.7 °C -16.3 °C 34256.2 hPa NE 7.7 km/h 7.7 km/h 57 % 0 mm
04:50 -11.7 °C -16.3 °C 34256.2 hPa NNE 2.6 km/h 5.1 km/h 56 % 0 mm
05:00 -11.4 °C -16.3 °C 34256.2 hPa Calm   7.7 km/h 55 % 0 mm
05:10 -11.4 °C -16.2 °C 34222.3 hPa NE 5.1 km/h 7.7 km/h 55 % 0 mm
05:20 -11.3 °C -16.2 °C 34256.2 hPa NE 2.6 km/h 5.1 km/h 55 % 0 mm
05:25 -11.2 °C -16.2 °C 34256.2 hPa NE 2.6 km/h 7.7 km/h 54 % 0 mm
11:23 -11.4 °C -16.7 °C 34327.3 hPa North 6 km/h   52 % 0 mm
11:28 -11.3 °C -16.3 °C 34256.2 hPa NNE 9 km/h 9 km/h 54 % 0 mm
11:38 -11.3 °C -16.3 °C 34256.2 hPa ESE 8.5 km/h 8.5 km/h 54 % 0 mm
11:43 -11.2 °C -16.2 °C 34256.2 hPa East 6 km/h 6 km/h 54 % 0 mm
11:48 -11.1 °C -16.2 °C 34256.2 hPa ENE 7.6 km/h 7.6 km/h 54 % 0 mm
11:53 -10.9 °C -16 °C 34256.2 hPa SW 11.9 km/h 11.9 km/h 54 % 0 mm
11:58 -10.6 °C -15.8 °C 34256.2 hPa WSW 11.1 km/h 11.1 km/h 53 % 0 mm
12:03 -10.6 °C -15.8 °C 34222.3 hPa West 12.2 km/h 12.2 km/h 53 % 0 mm
12:08 -10.6 °C -15.9 °C 34222.3 hPa WSW 9.8 km/h 9.8 km/h 52 % 0 mm
12:18 -10.4 °C -15.8 °C 34222.3 hPa WSW 6 km/h 6 km/h 52 % 0 mm
12:23 -10.4 °C -15.8 °C 34222.3 hPa SSE 11.9 km/h 11.9 km/h 52 % 0 mm
12:28 -10.2 °C -15.6 °C 34222.3 hPa SW 14 km/h 14 km/h 52 % 0 mm
12:33 -10.2 °C -15.7 °C 34198.6 hPa SW 11.9 km/h 11.9 km/h 51 % 0 mm
12:38 -10.2 °C -15.9 °C 34198.6 hPa SSE 17.9 km/h 17.9 km/h 50 % 0 mm
12:43 -10 °C -15.6 °C 34198.6 hPa West 9 km/h 9 km/h 51 % 0 mm
12:48 -9.7 °C -15.4 °C 34198.6 hPa SSE 11.1 km/h 11.1 km/h 50 % 0 mm
12:53 -9.6 °C -15.3 °C 34198.6 hPa SW 15 km/h 15 km/h 50 % 0 mm
12:58 -9.7 °C -15.4 °C 34198.6 hPa SSW 15.3 km/h 15.3 km/h 50 % 0 mm
13:03 -9.9 °C -15.8 °C 34198.6 hPa North 6.3 km/h 6.3 km/h 49 % 0 mm
13:08 -10 °C -15.9 °C 34198.6 hPa SW 16.1 km/h 16.1 km/h 49 % 0 mm
13:13 -10.1 °C -15.9 °C 34198.6 hPa SSW 15 km/h 15 km/h 49 % 0 mm
13:18 -10 °C -15.9 °C 34164.7 hPa South 6.3 km/h 6.8 km/h 49 % 0 mm
13:23 -9.9 °C -15.9 °C 34164.7 hPa SSW 11.9 km/h 11.9 km/h 48 % 0 mm
13:28 -9.9 °C -15.9 °C 34164.7 hPa West 15 km/h 15 km/h 48 % 0 mm
13:33 -9.8 °C -15.8 °C 34130.9 hPa South 3.1 km/h 3.7 km/h 48 % 0 mm
13:43 -9.9 °C -16 °C 34130.9 hPa WNW 6 km/h 8.5 km/h 48 % 0 mm
13:48 -10 °C -16 °C 34130.9 hPa SSW 14 km/h 14 km/h 48 % 0 mm
13:53 -9.9 °C -16 °C 34130.9 hPa South 6 km/h 6 km/h 48 % 0 mm
13:58 -9.9 °C -15.9 °C 34130.9 hPa SSW 9.3 km/h 9.3 km/h 48 % 0 mm
14:03 -9.9 °C -16.2 °C 34130.9 hPa South 9.8 km/h 9.8 km/h 47 % 0 mm
14:13 -10 °C -16.2 °C 34130.9 hPa SSE 9 km/h 9 km/h 47 % 0 mm
14:18 -10.1 °C -16.1 °C 34130.9 hPa WSW 8.5 km/h   48 % 0 mm
14:23 -10 °C -16 °C 34130.9 hPa WNW 8 km/h 8 km/h 48 % 0 mm
14:28 -10 °C -16 °C 34130.9 hPa SW 6 km/h 6 km/h 48 % 0 mm
14:33 -9.9 °C -16 °C 34130.9 hPa SSE 6 km/h 6 km/h 48 % 0 mm
14:43 -9.9 °C -16.1 °C 34130.9 hPa Calm     47 % 0 mm
14:48 -9.7 °C -15.8 °C 34097 hPa West 9 km/h 9 km/h 48 % 0 mm
14:53 -9.7 °C -15.9 °C 34097 hPa ESE 9.8 km/h 9.8 km/h 47 % 0 mm
14:58 -9.8 °C -16 °C 34097 hPa East 9 km/h 9 km/h 47 % 0 mm
15:03 -9.8 °C -16 °C 34097 hPa SW 9.3 km/h 9.3 km/h 47 % 0 mm
15:08 -9.9 °C -16.2 °C 34097 hPa SW 6.3 km/h 6.3 km/h 47 % 0 mm
15:13 -10 °C -16.2 °C 34097 hPa ENE 12.2 km/h 12.2 km/h 47 % 0 mm
15:18 -10.2 °C -16.3 °C 34097 hPa East 9 km/h 9.3 km/h 47 % 0 mm
15:28 -10.2 °C -16.4 °C 34097 hPa ESE 8.5 km/h 8.5 km/h 47 % 0 mm
15:33 -10.3 °C -16.4 °C 34063.2 hPa ESE 15 km/h 15 km/h 47 % 0 mm
15:38 -10.3 °C -16.3 °C 34063.2 hPa ESE 9.3 km/h 11.6 km/h 48 % 0 mm
15:48 -10.4 °C -16.4 °C 34063.2 hPa ESE 19.2 km/h 19.2 km/h 48 % 0 mm
15:53 -10.4 °C -16.4 °C 34063.2 hPa ESE 15 km/h 15 km/h 48 % 0 mm
16:03 -10.5 °C -16.5 °C 34063.2 hPa East 20.9 km/h 20.9 km/h 48 % 0 mm
16:08 -10.6 °C -16.4 °C 34063.2 hPa SSE 12.2 km/h 12.2 km/h 49 % 0 mm
16:13 -10.6 °C -16.4 °C 34063.2 hPa South 15 km/h 15 km/h 49 % 0 mm
16:18 -10.6 °C -16.4 °C 34063.2 hPa ESE 9 km/h 9 km/h 49 % 0 mm
16:23 -10.6 °C -16.4 °C 34063.2 hPa ESE 11.9 km/h 11.9 km/h 49 % 0 mm
16:38 -10.6 °C -16.3 °C 34063.2 hPa SW 6.8 km/h 6.8 km/h 50 % 0 mm
16:43 -10.6 °C -16.3 °C 34063.2 hPa SW 11.9 km/h 11.9 km/h 50 % 0 mm
16:48 -10.7 °C -16.3 °C 34063.2 hPa SW 20.9 km/h 20.9 km/h 50 % 0 mm
16:58 -10.9 °C -16.5 °C 34063.2 hPa SW 15 km/h 15 km/h 50 % 0 mm
17:03 -10.9 °C -16.5 °C 34063.2 hPa SW 11.9 km/h 11.9 km/h 50 % 0 mm
17:08 -10.9 °C -16.5 °C 34063.2 hPa SW 9.8 km/h 9.8 km/h 50 % 0 mm
17:13 -10.9 °C -16.5 °C 34063.2 hPa WSW 9 km/h 9 km/h 50 % 0 mm
17:18 -10.9 °C -16.5 °C 34097 hPa SW 15.3 km/h 15.3 km/h 50 % 0 mm
17:20 -12.8 °C -16.6 °C 33890.5 hPa North 2.6 km/h 2.6 km/h 63 % 0 mm
17:23 -10.9 °C -16.6 °C 34097 hPa SW 11.9 km/h 11.9 km/h 50 % 0 mm
17:28 -11 °C -16.6 °C 34097 hPa WSW 11.9 km/h 11.9 km/h 50 % 0 mm
17:30 -12.9 °C -16.6 °C 33890.5 hPa NNE 2.6 km/h 5.1 km/h 63 % 0 mm
17:33 -11.1 °C -16.7 °C 34063.2 hPa SW 11.9 km/h 11.9 km/h 50 % 0 mm
17:38 -11.1 °C -16.7 °C 34063.2 hPa SW 15 km/h 15 km/h 50 % 0 mm
17:40 -12.9 °C -16.5 °C 33856.6 hPa NE 5.1 km/h 7.7 km/h 64 % 0 mm
17:43 -11.2 °C -16.7 °C 34063.2 hPa SSW 9 km/h 9 km/h 51 % 0 mm
17:48 -11.2 °C -16.7 °C 34029.3 hPa WSW 6.3 km/h 6.3 km/h 51 % 0 mm
17:50 -12.9 °C -16.5 °C 33856.6 hPa ENE 2.6 km/h 5.1 km/h 64 % 0 mm
17:53 -11.3 °C -16.7 °C 34029.3 hPa SW 9 km/h 9 km/h 51 % 0 mm
17:58 -11.3 °C -16.7 °C 34029.3 hPa WSW 6 km/h   51 % 0 mm
18:00 -12.8 °C -16.3 °C 33856.6 hPa East 2.6 km/h 2.6 km/h 65 % 0 mm
18:03 -11.3 °C -16.7 °C 34029.3 hPa WSW 6 km/h 6 km/h 51 % 0 mm
18:10 -12.8 °C -16.4 °C 33890.5 hPa East 2.6 km/h 7.7 km/h 64 % 0 mm
18:13 -11.3 °C -16.6 °C 34029.3 hPa WSW 9 km/h 9 km/h 52 % 0 mm
18:18 -11.4 °C -16.7 °C 34029.3 hPa SW 9.8 km/h 9.8 km/h 52 % 0 mm
18:20 -12.8 °C -16.4 °C 33822.8 hPa ENE 5.1 km/h 7.7 km/h 64 % 0 mm
18:23 -11.4 °C -16.6 °C 34029.3 hPa SSW 15 km/h 15 km/h 53 % 0 mm
18:30 -12.9 °C -16.5 °C 33822.8 hPa East 5.1 km/h 10.3 km/h 64 % 0 mm
18:33 -11.5 °C -16.5 °C 34029.3 hPa SW 3.7 km/h 3.7 km/h 54 % 0 mm
18:38 -11.6 °C -16.6 °C 34029.3 hPa SSW 9 km/h 9 km/h 54 % 0 mm
18:40 -12.9 °C -16.3 °C 33822.8 hPa East 2.6 km/h 5.1 km/h 65 % 0 mm
18:43 -11.6 °C -16.4 °C 34029.3 hPa WSW 11.9 km/h 11.9 km/h 55 % 0 mm
18:58 -11.8 °C -16.4 °C 34029.3 hPa SW 9 km/h 9 km/h 56 % 0 mm
19:00 -12.9 °C -16.3 °C 33822.8 hPa ENE 2.6 km/h 5.1 km/h 65 % 0 mm
19:03 -11.8 °C -16.4 °C 34029.3 hPa SW 8.5 km/h 8.5 km/h 56 % 0 mm
19:08 -11.8 °C -16.5 °C 34029.3 hPa SW 4.2 km/h 4.2 km/h 56 % 0 mm
19:10 -12.9 °C -16.3 °C 33788.9 hPa ENE 2.6 km/h 5.1 km/h 65 % 0 mm
19:13 -11.9 °C -16.4 °C 34029.3 hPa SW 6 km/h 6 km/h 57 % 0 mm
19:18 -12 °C -16.6 °C 33992.1 hPa Calm     57 % 0 mm
19:20 -12.9 °C -16.2 °C 33788.9 hPa Calm   2.6 km/h 66 % 0 mm
19:23 -12.1 °C -16.4 °C 33992.1 hPa Calm     58 % 0 mm
19:30 -13 °C -16.2 °C 33788.9 hPa East 7.7 km/h 7.7 km/h 67 % 0 mm
19:33 -12.2 °C -16.6 °C 33992.1 hPa Calm     58 % 0 mm
19:38 -12.2 °C -16.5 °C 33992.1 hPa Calm     59 % 0 mm
19:40 -13.1 °C -16.2 °C 33788.9 hPa Calm   7.7 km/h 68 % 0 mm
19:43 -12.2 °C -16.5 °C 33992.1 hPa Calm     59 % 0 mm
19:48 -12.3 °C -16.7 °C 33958.2 hPa SW 4.2 km/h   58 % 0 mm
19:50 -13.1 °C -16.1 °C 33788.9 hPa East 7.7 km/h 10.3 km/h 69 % 0 mm
19:53 -12.3 °C -16.7 °C 33958.2 hPa WSW 3.7 km/h 3.7 km/h 58 % 0 mm
19:58 -12.4 °C -16.8 °C 33958.2 hPa SW 6 km/h 6 km/h 58 % 0 mm
20:00 -13.1 °C -16 °C 33788.9 hPa East 5.1 km/h 7.7 km/h 70 % 0 mm
20:03 -12.4 °C -16.7 °C 33958.2 hPa SW 6 km/h 6 km/h 59 % 0 mm
20:08 -12.4 °C -16.7 °C 33958.2 hPa SW 6 km/h 6 km/h 59 % 0 mm
20:10 -13.1 °C -15.7 °C 33751.6 hPa East 5.1 km/h 7.7 km/h 72 % 0 mm
20:13 -12.4 °C -16.5 °C 33958.2 hPa WSW 6.3 km/h   60 % 0 mm
20:18 -12.4 °C -16.5 °C 33992.1 hPa WSW 6 km/h 6 km/h 60 % 0 mm
20:20 -13.1 °C -15.6 °C 33717.8 hPa ENE 2.6 km/h 15.6 km/h 73 % 0 mm
20:23 -12.3 °C -16.3 °C 33992.1 hPa Calm     61 % 0 mm
20:30 -13.1 °C -15.5 °C 33717.8 hPa ENE 2.6 km/h 10.3 km/h 74 % 0 mm
20:33 -12.3 °C -16.3 °C 33992.1 hPa Calm     61 % 0 mm
20:38 -12.3 °C -16.3 °C 33992.1 hPa SW 3.1 km/h   61 % 0 mm
20:40 -13.1 °C -15.3 °C 33717.8 hPa East 5.1 km/h 10.3 km/h 76 % 0 mm
20:43 -12.3 °C -16.3 °C 33992.1 hPa SW 5.1 km/h   61 % 0 mm
20:48 -12.3 °C -16.3 °C 33958.2 hPa Calm     61 % 0 mm
20:50 -13.1 °C -15.3 °C 33683.9 hPa ENE 5.1 km/h 10.3 km/h 76 % 0 mm
20:53 -12.3 °C -16.3 °C 33958.2 hPa NE 4.2 km/h 4.2 km/h 61 % 0 mm
20:58 -12.3 °C -16.3 °C 33958.2 hPa Calm     61 % 0 mm
21:03 -12.3 °C -16.2 °C 33958.2 hPa Calm     62 % 0 mm
21:08 -12.3 °C -16.2 °C 33958.2 hPa Calm     62 % 0 mm
21:10 -13 °C -15 °C 33683.9 hPa ENE 5.1 km/h 10.3 km/h 78 % 0 mm
21:13 -12.3 °C -16.2 °C 33958.2 hPa Calm     62 % 0 mm
21:18 -12.3 °C -16.3 °C 33958.2 hPa NE 6 km/h 6 km/h 61 % 0 mm
21:20 -12.9 °C -14.8 °C 33650.1 hPa NE 5.1 km/h 7.7 km/h 79 % 0 mm
21:28 -12.3 °C -16.3 °C 33958.2 hPa NE 6 km/h 6 km/h 61 % 0 mm
21:30 -12.9 °C -14.8 °C 33650.1 hPa NE 5.1 km/h 10.3 km/h 79 % 0 mm
21:33 -12.3 °C -16.3 °C 33924.3 hPa NE 3.7 km/h 3.7 km/h 61 % 0 mm
21:38 -12.4 °C -16.3 °C 33924.3 hPa NNE 6.3 km/h 6.3 km/h 61 % 0 mm
21:48 -12.4 °C -16.3 °C 33924.3 hPa NNE 6 km/h 6 km/h 61 % 0 mm
21:50 -12.9 °C -14.7 °C 33616.2 hPa NNE 5.1 km/h 7.7 km/h 80 % 0 mm
21:53 -12.4 °C -16.4 °C 33924.3 hPa NE 6 km/h   61 % 0 mm
21:58 -12.4 °C -16.4 °C 33924.3 hPa NE 3.1 km/h 3.1 km/h 61 % 0 mm
22:03 -12.5 °C -16.5 °C 33924.3 hPa NNE 6.3 km/h 6.3 km/h 61 % 0 mm
22:08 -12.5 °C -16.3 °C 33924.3 hPa NNE 3.1 km/h 3.1 km/h 62 % 0 mm
22:10 -12.7 °C -14.4 °C 33616.2 hPa NE 7.7 km/h 10.3 km/h 81 % 0 mm
22:13 -12.6 °C -16.4 °C 33924.3 hPa Calm     62 % 0 mm
22:18 -12.6 °C -16.5 °C 33924.3 hPa ENE 3.7 km/h 3.7 km/h 61 % 0 mm
22:20 -12.6 °C -14.2 °C 33582.3 hPa NE 12.9 km/h 15.6 km/h 82 % 0 mm
22:23 -12.6 °C -16.4 °C 33924.3 hPa Calm     62 % 0 mm
22:28 -12.7 °C -16.5 °C 33924.3 hPa SSW 3.1 km/h 3.1 km/h 62 % 0 mm
22:30 -12.5 °C -14.1 °C 33582.3 hPa NE 7.7 km/h 15.6 km/h 82 % 0 mm
22:33 -12.7 °C -16.5 °C 33924.3 hPa NNE 6 km/h 6 km/h 62 % 0 mm
22:38 -12.7 °C -16.5 °C 33924.3 hPa Calm     62 % 0 mm
22:40 -12.5 °C -14.1 °C 33545.1 hPa ENE 15.6 km/h 15.6 km/h 82 % 0 mm
22:43 -12.7 °C -16.6 °C 33924.3 hPa Calm     62 % 0 mm
22:48 -12.8 °C -16.6 °C 33890.5 hPa Calm     62 % 0 mm
22:50 -12.5 °C -14.2 °C 33524.8 hPa East 15.6 km/h 28.5 km/h 81 % 0 mm
22:53 -12.8 °C -16.7 °C 33890.5 hPa NNW 2.3 km/h   62 % 0 mm
22:58 -12.9 °C -16.7 °C 33890.5 hPa Calm     62 % 0 mm
23:00 -12.5 °C -14.2 °C 33524.8 hPa East 12.9 km/h 15.6 km/h 81 % 0 mm
23:03 -12.9 °C -16.6 °C 33856.6 hPa Calm     63 % 0 mm
23:08 -12.9 °C -16.6 °C 33856.6 hPa Calm     63 % 0 mm
23:10 -12.5 °C -14.3 °C 33477.4 hPa ENE 12.9 km/h 23.3 km/h 80 % 0 mm
23:20 -12.5 °C -14.4 °C 33545.1 hPa NE 23.3 km/h 38.8 km/h 79 % 0 mm
23:30 -12.6 °C -14.5 °C 33545.1 hPa NE 31.1 km/h 31.1 km/h 79 % 0 mm
23:40 -12.8 °C -14.6 °C 33477.4 hPa NE 12.9 km/h 25.9 km/h 80 % 0 mm
23:50 -12.8 °C -14.6 °C 33477.4 hPa East 12.9 km/h 15.6 km/h 81 % 0 mm
Meteo Sesrovires
Elogis d' Weather Underground - 4 mb

Guio original per  Jim McMurry - jmcmurry@mwt.net Adaptat per a la plantilla per  Wim van der Kuil - Leuven-Template.eu

Trobareu la nostra informacio del temps tambe a:

Weather Underground

AWEKAS